sensor_id;sensor_type;location;lat;lon;timestamp;P1;durP1;ratioP1;P2;durP2;ratioP2
54241;SDS011;40156;51.080;17.082;2023-03-19T00:01:58;25.75;;;11.27;;
54241;SDS011;40156;51.080;17.082;2023-03-19T00:04:41;32.30;;;13.10;;
54241;SDS011;40156;51.080;17.082;2023-03-19T00:07:09;35.28;;;13.18;;
54241;SDS011;40156;51.080;17.082;2023-03-19T00:09:36;36.65;;;13.52;;
54241;SDS011;40156;51.080;17.082;2023-03-19T00:12:05;39.42;;;13.85;;
54241;SDS011;40156;51.080;17.082;2023-03-19T00:14:32;32.78;;;12.90;;
54241;SDS011;40156;51.080;17.082;2023-03-19T00:17:00;35.78;;;12.57;;
54241;SDS011;40156;51.080;17.082;2023-03-19T00:19:27;28.92;;;12.13;;
54241;SDS011;40156;51.080;17.082;2023-03-19T00:21:55;36.95;;;12.23;;
54241;SDS011;40156;51.080;17.082;2023-03-19T00:24:22;31.90;;;11.98;;
54241;SDS011;40156;51.080;17.082;2023-03-19T00:26:50;29.67;;;10.80;;
54241;SDS011;40156;51.080;17.082;2023-03-19T00:29:17;31.73;;;11.98;;
54241;SDS011;40156;51.080;17.082;2023-03-19T00:31:45;21.63;;;10.40;;
54241;SDS011;40156;51.080;17.082;2023-03-19T00:34:12;24.27;;;9.95;;
54241;SDS011;40156;51.080;17.082;2023-03-19T00:36:40;25.98;;;10.93;;
54241;SDS011;40156;51.080;17.082;2023-03-19T00:39:08;27.10;;;12.10;;
54241;SDS011;40156;51.080;17.082;2023-03-19T00:41:35;32.75;;;12.27;;
54241;SDS011;40156;51.080;17.082;2023-03-19T00:44:03;31.90;;;14.05;;
54241;SDS011;40156;51.080;17.082;2023-03-19T00:46:31;31.10;;;11.65;;
54241;SDS011;40156;51.080;17.082;2023-03-19T00:48:58;26.70;;;11.23;;
54241;SDS011;40156;51.080;17.082;2023-03-19T00:51:26;23.20;;;10.20;;
54241;SDS011;40156;51.080;17.082;2023-03-19T00:53:54;28.13;;;10.55;;
54241;SDS011;40156;51.080;17.082;2023-03-19T00:56:21;27.55;;;11.05;;
54241;SDS011;40156;51.080;17.082;2023-03-19T00:58:49;30.75;;;12.27;;
54241;SDS011;40156;51.080;17.082;2023-03-19T01:01:16;29.48;;;10.82;;
54241;SDS011;40156;51.080;17.082;2023-03-19T01:03:44;24.63;;;9.57;;
54241;SDS011;40156;51.080;17.082;2023-03-19T01:06:12;62.80;;;19.67;;
54241;SDS011;40156;51.080;17.082;2023-03-19T01:08:40;49.78;;;16.05;;
54241;SDS011;40156;51.080;17.082;2023-03-19T01:11:12;48.55;;;16.83;;
54241;SDS011;40156;51.080;17.082;2023-03-19T01:13:39;57.08;;;17.02;;
54241;SDS011;40156;51.080;17.082;2023-03-19T01:19:33;32.00;;;10.45;;
54241;SDS011;40156;51.080;17.082;2023-03-19T01:22:01;26.92;;;10.65;;
54241;SDS011;40156;51.080;17.082;2023-03-19T01:24:29;29.30;;;12.13;;
54241;SDS011;40156;51.080;17.082;2023-03-19T01:26:57;32.20;;;11.10;;
54241;SDS011;40156;51.080;17.082;2023-03-19T01:29:24;24.60;;;10.38;;
54241;SDS011;40156;51.080;17.082;2023-03-19T01:31:52;26.10;;;11.40;;
54241;SDS011;40156;51.080;17.082;2023-03-19T01:34:19;26.85;;;11.38;;
54241;SDS011;40156;51.080;17.082;2023-03-19T01:37:02;34.95;;;12.82;;
54241;SDS011;40156;51.080;17.082;2023-03-19T01:39:29;29.40;;;11.95;;
54241;SDS011;40156;51.080;17.082;2023-03-19T01:41:59;26.17;;;10.35;;
54241;SDS011;40156;51.080;17.082;2023-03-19T01:44:29;26.15;;;11.75;;
54241;SDS011;40156;51.080;17.082;2023-03-19T01:46:57;23.35;;;11.13;;
54241;SDS011;40156;51.080;17.082;2023-03-19T01:49:26;30.73;;;12.02;;
54241;SDS011;40156;51.080;17.082;2023-03-19T01:51:55;28.25;;;12.60;;
54241;SDS011;40156;51.080;17.082;2023-03-19T01:54:24;27.98;;;11.63;;
54241;SDS011;40156;51.080;17.082;2023-03-19T01:56:54;28.02;;;11.82;;
54241;SDS011;40156;51.080;17.082;2023-03-19T02:00:05;29.65;;;11.90;;
54241;SDS011;40156;51.080;17.082;2023-03-19T02:02:24;27.50;;;12.88;;
54241;SDS011;40156;51.080;17.082;2023-03-19T02:04:55;30.58;;;13.25;;
54241;SDS011;40156;51.080;17.082;2023-03-19T02:07:23;24.77;;;11.13;;
54241;SDS011;40156;51.080;17.082;2023-03-19T02:09:51;24.15;;;10.70;;
54241;SDS011;40156;51.080;17.082;2023-03-19T02:12:19;24.92;;;11.02;;
54241;SDS011;40156;51.080;17.082;2023-03-19T02:14:46;25.30;;;10.85;;
54241;SDS011;40156;51.080;17.082;2023-03-19T02:17:14;27.52;;;12.45;;
54241;SDS011;40156;51.080;17.082;2023-03-19T02:22:16;32.35;;;12.60;;
54241;SDS011;40156;51.080;17.082;2023-03-19T02:24:47;30.75;;;11.23;;
54241;SDS011;40156;51.080;17.082;2023-03-19T02:27:16;24.83;;;10.30;;
54241;SDS011;40156;51.080;17.082;2023-03-19T02:29:43;28.02;;;10.32;;
54241;SDS011;40156;51.080;17.082;2023-03-19T02:32:11;28.25;;;10.90;;
54241;SDS011;40156;51.080;17.082;2023-03-19T02:34:39;23.38;;;10.15;;
54241;SDS011;40156;51.080;17.082;2023-03-19T02:40:21;27.50;;;9.80;;
54241;SDS011;40156;51.080;17.082;2023-03-19T02:46:12;26.10;;;11.32;;
54241;SDS011;40156;51.080;17.082;2023-03-19T02:48:40;26.27;;;10.70;;
54241;SDS011;40156;51.080;17.082;2023-03-19T02:51:07;22.75;;;10.40;;
54241;SDS011;40156;51.080;17.082;2023-03-19T02:53:35;26.08;;;11.15;;
54241;SDS011;40156;51.080;17.082;2023-03-19T02:56:02;21.73;;;9.82;;
54241;SDS011;40156;51.080;17.082;2023-03-19T02:58:30;28.35;;;11.68;;
54241;SDS011;40156;51.080;17.082;2023-03-19T03:00:57;25.48;;;11.10;;
54241;SDS011;40156;51.080;17.082;2023-03-19T03:03:25;29.27;;;10.98;;
54241;SDS011;40156;51.080;17.082;2023-03-19T03:05:52;26.35;;;11.57;;
54241;SDS011;40156;51.080;17.082;2023-03-19T03:08:20;33.67;;;12.40;;
54241;SDS011;40156;51.080;17.082;2023-03-19T03:10:47;24.38;;;10.63;;
54241;SDS011;40156;51.080;17.082;2023-03-19T03:13:15;35.15;;;14.40;;
54241;SDS011;40156;51.080;17.082;2023-03-19T03:15:43;34.78;;;13.80;;
54241;SDS011;40156;51.080;17.082;2023-03-19T03:18:10;28.05;;;10.85;;
54241;SDS011;40156;51.080;17.082;2023-03-19T03:20:38;27.73;;;11.13;;
54241;SDS011;40156;51.080;17.082;2023-03-19T03:23:05;25.23;;;11.20;;
54241;SDS011;40156;51.080;17.082;2023-03-19T03:25:34;27.75;;;11.40;;
54241;SDS011;40156;51.080;17.082;2023-03-19T03:28:01;27.35;;;11.13;;
54241;SDS011;40156;51.080;17.082;2023-03-19T03:30:29;27.58;;;11.63;;
54241;SDS011;40156;51.080;17.082;2023-03-19T03:32:56;28.45;;;11.48;;
54241;SDS011;40156;51.080;17.082;2023-03-19T03:35:23;24.90;;;10.55;;
54241;SDS011;40156;51.080;17.082;2023-03-19T03:37:51;28.77;;;12.13;;
54241;SDS011;40156;51.080;17.082;2023-03-19T03:40:19;28.75;;;12.98;;
54241;SDS011;40156;51.080;17.082;2023-03-19T03:42:46;27.55;;;11.45;;
54241;SDS011;40156;51.080;17.082;2023-03-19T03:45:14;25.67;;;11.40;;
54241;SDS011;40156;51.080;17.082;2023-03-19T03:47:41;35.05;;;13.27;;
54241;SDS011;40156;51.080;17.082;2023-03-19T03:50:09;30.58;;;12.23;;
54241;SDS011;40156;51.080;17.082;2023-03-19T03:52:37;32.10;;;12.38;;
54241;SDS011;40156;51.080;17.082;2023-03-19T03:55:08;29.60;;;11.52;;
54241;SDS011;40156;51.080;17.082;2023-03-19T03:57:36;24.90;;;11.40;;
54241;SDS011;40156;51.080;17.082;2023-03-19T04:00:03;27.63;;;12.02;;
54241;SDS011;40156;51.080;17.082;2023-03-19T04:02:31;35.78;;;12.23;;
54241;SDS011;40156;51.080;17.082;2023-03-19T04:04:59;30.25;;;11.77;;
54241;SDS011;40156;51.080;17.082;2023-03-19T04:07:26;29.40;;;12.00;;
54241;SDS011;40156;51.080;17.082;2023-03-19T04:09:55;26.17;;;11.60;;
54241;SDS011;40156;51.080;17.082;2023-03-19T04:12:23;28.58;;;12.05;;
54241;SDS011;40156;51.080;17.082;2023-03-19T04:14:51;25.92;;;11.82;;
54241;SDS011;40156;51.080;17.082;2023-03-19T04:17:18;29.80;;;12.25;;
54241;SDS011;40156;51.080;17.082;2023-03-19T04:19:46;25.40;;;11.77;;
54241;SDS011;40156;51.080;17.082;2023-03-19T04:22:13;29.27;;;12.35;;
54241;SDS011;40156;51.080;17.082;2023-03-19T04:24:41;32.30;;;12.50;;
54241;SDS011;40156;51.080;17.082;2023-03-19T04:27:08;26.88;;;11.77;;
54241;SDS011;40156;51.080;17.082;2023-03-19T04:29:36;38.03;;;17.30;;
54241;SDS011;40156;51.080;17.082;2023-03-19T04:32:03;23.92;;;11.38;;
54241;SDS011;40156;51.080;17.082;2023-03-19T04:34:31;24.90;;;11.30;;
54241;SDS011;40156;51.080;17.082;2023-03-19T04:36:59;24.85;;;11.48;;
54241;SDS011;40156;51.080;17.082;2023-03-19T04:39:26;30.42;;;12.43;;
54241;SDS011;40156;51.080;17.082;2023-03-19T04:41:54;30.85;;;11.77;;
54241;SDS011;40156;51.080;17.082;2023-03-19T04:44:21;28.02;;;11.77;;
54241;SDS011;40156;51.080;17.082;2023-03-19T04:46:49;25.95;;;11.43;;
54241;SDS011;40156;51.080;17.082;2023-03-19T04:49:16;26.60;;;11.95;;
54241;SDS011;40156;51.080;17.082;2023-03-19T04:51:44;25.45;;;11.93;;
54241;SDS011;40156;51.080;17.082;2023-03-19T04:54:11;27.95;;;10.95;;
54241;SDS011;40156;51.080;17.082;2023-03-19T04:56:39;27.20;;;11.75;;
54241;SDS011;40156;51.080;17.082;2023-03-19T04:59:06;28.58;;;11.15;;
54241;SDS011;40156;51.080;17.082;2023-03-19T05:01:34;27.35;;;11.90;;
54241;SDS011;40156;51.080;17.082;2023-03-19T05:04:01;31.73;;;12.40;;
54241;SDS011;40156;51.080;17.082;2023-03-19T05:06:29;26.48;;;11.10;;
54241;SDS011;40156;51.080;17.082;2023-03-19T05:08:56;26.35;;;11.63;;
54241;SDS011;40156;51.080;17.082;2023-03-19T05:11:24;26.67;;;12.68;;
54241;SDS011;40156;51.080;17.082;2023-03-19T05:13:51;38.35;;;13.40;;
54241;SDS011;40156;51.080;17.082;2023-03-19T05:16:19;28.30;;;12.27;;
54241;SDS011;40156;51.080;17.082;2023-03-19T05:18:47;32.83;;;13.10;;
54241;SDS011;40156;51.080;17.082;2023-03-19T05:21:14;30.60;;;11.15;;
54241;SDS011;40156;51.080;17.082;2023-03-19T05:23:42;30.70;;;12.18;;
54241;SDS011;40156;51.080;17.082;2023-03-19T05:26:09;29.30;;;11.55;;
54241;SDS011;40156;51.080;17.082;2023-03-19T05:28:37;29.25;;;11.63;;
54241;SDS011;40156;51.080;17.082;2023-03-19T05:31:05;27.17;;;11.43;;
54241;SDS011;40156;51.080;17.082;2023-03-19T05:33:32;25.98;;;11.00;;
54241;SDS011;40156;51.080;17.082;2023-03-19T05:36:00;26.55;;;10.40;;
54241;SDS011;40156;51.080;17.082;2023-03-19T05:38:27;25.25;;;11.55;;
54241;SDS011;40156;51.080;17.082;2023-03-19T05:40:55;39.17;;;15.70;;
54241;SDS011;40156;51.080;17.082;2023-03-19T05:43:22;36.10;;;15.82;;
54241;SDS011;40156;51.080;17.082;2023-03-19T05:45:50;26.02;;;12.13;;
54241;SDS011;40156;51.080;17.082;2023-03-19T05:48:18;25.85;;;11.25;;
54241;SDS011;40156;51.080;17.082;2023-03-19T05:50:45;30.83;;;11.95;;
54241;SDS011;40156;51.080;17.082;2023-03-19T05:53:13;23.23;;;11.82;;
54241;SDS011;40156;51.080;17.082;2023-03-19T05:55:41;29.60;;;12.05;;
54241;SDS011;40156;51.080;17.082;2023-03-19T05:58:08;23.30;;;11.38;;
54241;SDS011;40156;51.080;17.082;2023-03-19T06:00:36;25.73;;;11.77;;
54241;SDS011;40156;51.080;17.082;2023-03-19T06:03:04;25.67;;;11.85;;
54241;SDS011;40156;51.080;17.082;2023-03-19T06:05:32;22.95;;;10.98;;
54241;SDS011;40156;51.080;17.082;2023-03-19T06:07:59;21.85;;;10.77;;
54241;SDS011;40156;51.080;17.082;2023-03-19T06:10:27;23.42;;;11.57;;
54241;SDS011;40156;51.080;17.082;2023-03-19T06:12:54;24.63;;;11.25;;
54241;SDS011;40156;51.080;17.082;2023-03-19T06:15:22;25.05;;;11.25;;
54241;SDS011;40156;51.080;17.082;2023-03-19T06:17:49;22.75;;;10.50;;
54241;SDS011;40156;51.080;17.082;2023-03-19T06:20:17;24.45;;;11.02;;
54241;SDS011;40156;51.080;17.082;2023-03-19T06:22:44;20.30;;;11.48;;
54241;SDS011;40156;51.080;17.082;2023-03-19T06:25:12;21.92;;;11.88;;
54241;SDS011;40156;51.080;17.082;2023-03-19T06:27:40;26.33;;;11.40;;
54241;SDS011;40156;51.080;17.082;2023-03-19T06:30:08;21.60;;;11.10;;
54241;SDS011;40156;51.080;17.082;2023-03-19T06:32:35;25.80;;;10.95;;
54241;SDS011;40156;51.080;17.082;2023-03-19T06:35:03;22.65;;;11.27;;
54241;SDS011;40156;51.080;17.082;2023-03-19T06:37:31;24.10;;;11.23;;
54241;SDS011;40156;51.080;17.082;2023-03-19T06:39:59;23.73;;;12.70;;
54241;SDS011;40156;51.080;17.082;2023-03-19T06:42:26;26.80;;;12.77;;
54241;SDS011;40156;51.080;17.082;2023-03-19T06:44:54;21.00;;;11.45;;
54241;SDS011;40156;51.080;17.082;2023-03-19T06:47:24;23.83;;;10.95;;
54241;SDS011;40156;51.080;17.082;2023-03-19T06:49:52;21.65;;;11.45;;
54241;SDS011;40156;51.080;17.082;2023-03-19T06:52:20;18.40;;;10.20;;
54241;SDS011;40156;51.080;17.082;2023-03-19T06:54:47;23.25;;;10.95;;
54241;SDS011;40156;51.080;17.082;2023-03-19T06:57:15;21.80;;;10.55;;
54241;SDS011;40156;51.080;17.082;2023-03-19T06:59:43;25.85;;;11.27;;
54241;SDS011;40156;51.080;17.082;2023-03-19T07:02:12;22.65;;;10.95;;
54241;SDS011;40156;51.080;17.082;2023-03-19T07:04:40;20.95;;;10.43;;
54241;SDS011;40156;51.080;17.082;2023-03-19T07:07:16;22.67;;;10.68;;
54241;SDS011;40156;51.080;17.082;2023-03-19T07:09:44;26.80;;;11.18;;
54241;SDS011;40156;51.080;17.082;2023-03-19T07:12:12;20.85;;;11.25;;
54241;SDS011;40156;51.080;17.082;2023-03-19T07:14:40;20.48;;;10.80;;
54241;SDS011;40156;51.080;17.082;2023-03-19T07:17:07;22.00;;;11.20;;
54241;SDS011;40156;51.080;17.082;2023-03-19T07:19:37;21.73;;;11.50;;
54241;SDS011;40156;51.080;17.082;2023-03-19T07:22:05;24.02;;;11.48;;
54241;SDS011;40156;51.080;17.082;2023-03-19T07:24:33;21.17;;;11.10;;
54241;SDS011;40156;51.080;17.082;2023-03-19T07:27:00;22.25;;;10.88;;
54241;SDS011;40156;51.080;17.082;2023-03-19T07:29:28;20.70;;;10.50;;
54241;SDS011;40156;51.080;17.082;2023-03-19T07:31:56;21.33;;;10.48;;
54241;SDS011;40156;51.080;17.082;2023-03-19T07:34:24;19.88;;;11.13;;
54241;SDS011;40156;51.080;17.082;2023-03-19T07:36:51;19.02;;;9.85;;
54241;SDS011;40156;51.080;17.082;2023-03-19T07:39:20;18.48;;;9.63;;
54241;SDS011;40156;51.080;17.082;2023-03-19T07:41:47;19.38;;;10.18;;
54241;SDS011;40156;51.080;17.082;2023-03-19T07:44:15;20.48;;;9.75;;
54241;SDS011;40156;51.080;17.082;2023-03-19T07:46:44;18.88;;;10.18;;
54241;SDS011;40156;51.080;17.082;2023-03-19T07:49:12;14.13;;;8.88;;
54241;SDS011;40156;51.080;17.082;2023-03-19T07:51:39;15.07;;;8.98;;
54241;SDS011;40156;51.080;17.082;2023-03-19T07:54:07;17.33;;;9.32;;
54241;SDS011;40156;51.080;17.082;2023-03-19T07:56:35;15.77;;;8.95;;
54241;SDS011;40156;51.080;17.082;2023-03-19T07:59:03;15.35;;;9.52;;
54241;SDS011;40156;51.080;17.082;2023-03-19T08:01:31;16.63;;;8.85;;
54241;SDS011;40156;51.080;17.082;2023-03-19T08:03:59;15.73;;;9.05;;
54241;SDS011;40156;51.080;17.082;2023-03-19T08:06:27;17.58;;;9.15;;
54241;SDS011;40156;51.080;17.082;2023-03-19T08:08:55;17.67;;;9.32;;
54241;SDS011;40156;51.080;17.082;2023-03-19T08:11:22;16.52;;;9.43;;
54241;SDS011;40156;51.080;17.082;2023-03-19T08:13:50;18.90;;;9.13;;
54241;SDS011;40156;51.080;17.082;2023-03-19T08:16:18;16.67;;;8.68;;
54241;SDS011;40156;51.080;17.082;2023-03-19T08:18:46;15.77;;;9.13;;
54241;SDS011;40156;51.080;17.082;2023-03-19T08:21:14;15.75;;;9.43;;
54241;SDS011;40156;51.080;17.082;2023-03-19T08:23:41;18.88;;;9.77;;
54241;SDS011;40156;51.080;17.082;2023-03-19T08:26:09;15.18;;;9.80;;
54241;SDS011;40156;51.080;17.082;2023-03-19T08:28:37;16.48;;;8.90;;
54241;SDS011;40156;51.080;17.082;2023-03-19T08:31:08;16.98;;;10.15;;
54241;SDS011;40156;51.080;17.082;2023-03-19T08:33:36;14.80;;;9.05;;
54241;SDS011;40156;51.080;17.082;2023-03-19T08:36:08;16.38;;;9.13;;
54241;SDS011;40156;51.080;17.082;2023-03-19T08:38:36;14.27;;;8.63;;
54241;SDS011;40156;51.080;17.082;2023-03-19T08:41:04;16.23;;;8.45;;
54241;SDS011;40156;51.080;17.082;2023-03-19T08:43:33;15.55;;;8.50;;
54241;SDS011;40156;51.080;17.082;2023-03-19T08:46:00;13.43;;;8.45;;
54241;SDS011;40156;51.080;17.082;2023-03-19T08:48:28;12.32;;;7.88;;
54241;SDS011;40156;51.080;17.082;2023-03-19T08:50:57;12.32;;;8.75;;
54241;SDS011;40156;51.080;17.082;2023-03-19T08:53:26;13.25;;;8.60;;
54241;SDS011;40156;51.080;17.082;2023-03-19T08:55:57;12.70;;;8.25;;
54241;SDS011;40156;51.080;17.082;2023-03-19T08:58:26;12.77;;;7.80;;
54241;SDS011;40156;51.080;17.082;2023-03-19T09:01:00;12.32;;;8.20;;
54241;SDS011;40156;51.080;17.082;2023-03-19T09:03:28;12.63;;;8.15;;
54241;SDS011;40156;51.080;17.082;2023-03-19T09:05:59;14.77;;;8.20;;
54241;SDS011;40156;51.080;17.082;2023-03-19T09:08:30;13.70;;;8.00;;
54241;SDS011;40156;51.080;17.082;2023-03-19T09:10:57;10.88;;;7.70;;
54241;SDS011;40156;51.080;17.082;2023-03-19T09:13:25;14.98;;;7.50;;
54241;SDS011;40156;51.080;17.082;2023-03-19T09:15:53;12.52;;;8.32;;
54241;SDS011;40156;51.080;17.082;2023-03-19T09:18:21;12.25;;;7.80;;
54241;SDS011;40156;51.080;17.082;2023-03-19T09:20:48;9.50;;;6.93;;
54241;SDS011;40156;51.080;17.082;2023-03-19T09:23:16;11.90;;;7.18;;
54241;SDS011;40156;51.080;17.082;2023-03-19T09:25:44;12.88;;;6.13;;
54241;SDS011;40156;51.080;17.082;2023-03-19T09:28:11;11.52;;;7.07;;
54241;SDS011;40156;51.080;17.082;2023-03-19T09:30:39;15.93;;;8.68;;
54241;SDS011;40156;51.080;17.082;2023-03-19T09:33:06;14.27;;;7.50;;
54241;SDS011;40156;51.080;17.082;2023-03-19T09:35:35;13.15;;;7.45;;
54241;SDS011;40156;51.080;17.082;2023-03-19T09:38:03;9.73;;;7.43;;
54241;SDS011;40156;51.080;17.082;2023-03-19T09:40:37;12.93;;;7.25;;
54241;SDS011;40156;51.080;17.082;2023-03-19T09:43:29;12.98;;;7.32;;
54241;SDS011;40156;51.080;17.082;2023-03-19T09:46:00;11.32;;;6.97;;
54241;SDS011;40156;51.080;17.082;2023-03-19T09:48:32;10.43;;;6.50;;
54241;SDS011;40156;51.080;17.082;2023-03-19T09:51:02;13.00;;;7.10;;
54241;SDS011;40156;51.080;17.082;2023-03-19T09:53:35;10.93;;;6.60;;
54241;SDS011;40156;51.080;17.082;2023-03-19T09:56:06;12.95;;;7.20;;
54241;SDS011;40156;51.080;17.082;2023-03-19T09:58:39;14.60;;;6.75;;
54241;SDS011;40156;51.080;17.082;2023-03-19T10:01:10;9.95;;;6.97;;
54241;SDS011;40156;51.080;17.082;2023-03-19T10:03:51;11.95;;;6.22;;
54241;SDS011;40156;51.080;17.082;2023-03-19T10:06:27;13.45;;;7.82;;
54241;SDS011;40156;51.080;17.082;2023-03-19T10:09:03;10.52;;;6.30;;
54241;SDS011;40156;51.080;17.082;2023-03-19T10:17:13;9.18;;;5.55;;
54241;SDS011;40156;51.080;17.082;2023-03-19T10:19:52;10.48;;;6.57;;
54241;SDS011;40156;51.080;17.082;2023-03-19T10:22:23;12.85;;;6.25;;
54241;SDS011;40156;51.080;17.082;2023-03-19T10:24:52;11.18;;;6.88;;
54241;SDS011;40156;51.080;17.082;2023-03-19T10:27:22;12.30;;;8.32;;
54241;SDS011;40156;51.080;17.082;2023-03-19T10:29:51;11.73;;;6.87;;
54241;SDS011;40156;51.080;17.082;2023-03-19T10:32:26;17.45;;;8.13;;
54241;SDS011;40156;51.080;17.082;2023-03-19T10:34:55;25.10;;;11.98;;
54241;SDS011;40156;51.080;17.082;2023-03-19T10:37:26;11.25;;;6.57;;
54241;SDS011;40156;51.080;17.082;2023-03-19T10:39:54;11.73;;;7.15;;
54241;SDS011;40156;51.080;17.082;2023-03-19T10:44:55;12.77;;;6.40;;
54241;SDS011;40156;51.080;17.082;2023-03-19T10:47:25;18.70;;;8.15;;
54241;SDS011;40156;51.080;17.082;2023-03-19T10:49:54;10.23;;;5.78;;
54241;SDS011;40156;51.080;17.082;2023-03-19T10:52:28;9.15;;;5.95;;
54241;SDS011;40156;51.080;17.082;2023-03-19T10:55:02;10.38;;;6.28;;
54241;SDS011;40156;51.080;17.082;2023-03-19T10:57:30;10.77;;;6.22;;
54241;SDS011;40156;51.080;17.082;2023-03-19T11:00:04;10.98;;;6.57;;
54241;SDS011;40156;51.080;17.082;2023-03-19T11:02:32;11.00;;;6.55;;
54241;SDS011;40156;51.080;17.082;2023-03-19T11:07:39;16.65;;;7.20;;
54241;SDS011;40156;51.080;17.082;2023-03-19T11:10:13;9.85;;;6.20;;
54241;SDS011;40156;51.080;17.082;2023-03-19T11:12:41;11.75;;;7.05;;
54241;SDS011;40156;51.080;17.082;2023-03-19T11:15:19;10.68;;;6.47;;
54241;SDS011;40156;51.080;17.082;2023-03-19T11:17:56;9.40;;;6.05;;
54241;SDS011;40156;51.080;17.082;2023-03-19T11:22:52;10.55;;;7.25;;
54241;SDS011;40156;51.080;17.082;2023-03-19T11:25:28;10.63;;;7.18;;
54241;SDS011;40156;51.080;17.082;2023-03-19T11:27:59;12.57;;;7.65;;
54241;SDS011;40156;51.080;17.082;2023-03-19T11:30:30;13.07;;;7.93;;
54241;SDS011;40156;51.080;17.082;2023-03-19T11:33:03;11.80;;;7.10;;
54241;SDS011;40156;51.080;17.082;2023-03-19T11:35:37;11.27;;;7.00;;
54241;SDS011;40156;51.080;17.082;2023-03-19T11:38:12;10.00;;;7.28;;
54241;SDS011;40156;51.080;17.082;2023-03-19T11:43:29;11.40;;;6.55;;
54241;SDS011;40156;51.080;17.082;2023-03-19T12:01:38;11.40;;;7.07;;
54241;SDS011;40156;51.080;17.082;2023-03-19T12:04:12;10.25;;;6.47;;
54241;SDS011;40156;51.080;17.082;2023-03-19T12:09:22;10.90;;;7.90;;
54241;SDS011;40156;51.080;17.082;2023-03-19T12:17:23;13.45;;;7.35;;
54241;SDS011;40156;51.080;17.082;2023-03-19T12:20:02;11.65;;;6.88;;
54241;SDS011;40156;51.080;17.082;2023-03-19T12:35:37;12.18;;;6.75;;
54241;SDS011;40156;51.080;17.082;2023-03-19T12:46:19;9.70;;;6.70;;
54241;SDS011;40156;51.080;17.082;2023-03-19T12:48:51;13.10;;;6.63;;
54241;SDS011;40156;51.080;17.082;2023-03-19T12:51:20;12.23;;;6.53;;
54241;SDS011;40156;51.080;17.082;2023-03-19T12:54:24;11.13;;;6.47;;
54241;SDS011;40156;51.080;17.082;2023-03-19T12:59:26;12.13;;;7.05;;
54241;SDS011;40156;51.080;17.082;2023-03-19T13:02:15;11.13;;;6.00;;
54241;SDS011;40156;51.080;17.082;2023-03-19T13:05:18;10.30;;;6.65;;
54241;SDS011;40156;51.080;17.082;2023-03-19T13:07:53;12.13;;;7.13;;
54241;SDS011;40156;51.080;17.082;2023-03-19T13:10:24;14.05;;;6.50;;
54241;SDS011;40156;51.080;17.082;2023-03-19T13:12:51;11.43;;;6.68;;
54241;SDS011;40156;51.080;17.082;2023-03-19T13:15:36;11.98;;;6.28;;
54241;SDS011;40156;51.080;17.082;2023-03-19T13:23:03;11.20;;;6.55;;
54241;SDS011;40156;51.080;17.082;2023-03-19T13:25:42;11.60;;;7.07;;
54241;SDS011;40156;51.080;17.082;2023-03-19T13:28:11;11.32;;;5.90;;
54241;SDS011;40156;51.080;17.082;2023-03-19T13:30:57;9.50;;;6.30;;
54241;SDS011;40156;51.080;17.082;2023-03-19T13:33:25;12.65;;;7.00;;
54241;SDS011;40156;51.080;17.082;2023-03-19T13:35:53;11.20;;;6.53;;
54241;SDS011;40156;51.080;17.082;2023-03-19T13:38:32;12.15;;;6.70;;
54241;SDS011;40156;51.080;17.082;2023-03-19T13:41:01;12.05;;;6.25;;
54241;SDS011;40156;51.080;17.082;2023-03-19T13:46:03;10.95;;;6.45;;
54241;SDS011;40156;51.080;17.082;2023-03-19T13:53:34;13.98;;;6.60;;
54241;SDS011;40156;51.080;17.082;2023-03-19T13:56:10;12.50;;;7.00;;
54241;SDS011;40156;51.080;17.082;2023-03-19T14:01:42;11.80;;;7.38;;
54241;SDS011;40156;51.080;17.082;2023-03-19T14:06:47;11.68;;;6.75;;
54241;SDS011;40156;51.080;17.082;2023-03-19T14:09:28;11.70;;;7.22;;
54241;SDS011;40156;51.080;17.082;2023-03-19T14:14:57;19.48;;;10.43;;
54241;SDS011;40156;51.080;17.082;2023-03-19T14:17:27;23.20;;;13.05;;
54241;SDS011;40156;51.080;17.082;2023-03-19T14:19:59;13.63;;;7.07;;
54241;SDS011;40156;51.080;17.082;2023-03-19T14:22:55;8.40;;;5.93;;
54241;SDS011;40156;51.080;17.082;2023-03-19T14:28:15;12.45;;;7.22;;
54241;SDS011;40156;51.080;17.082;2023-03-19T14:30:45;10.40;;;6.68;;
54241;SDS011;40156;51.080;17.082;2023-03-19T14:33:21;13.13;;;6.82;;
54241;SDS011;40156;51.080;17.082;2023-03-19T14:35:52;11.88;;;7.05;;
54241;SDS011;40156;51.080;17.082;2023-03-19T14:38:31;9.88;;;5.30;;
54241;SDS011;40156;51.080;17.082;2023-03-19T14:41:01;11.07;;;5.93;;
54241;SDS011;40156;51.080;17.082;2023-03-19T14:46:22;10.20;;;5.68;;
54241;SDS011;40156;51.080;17.082;2023-03-19T14:48:57;8.18;;;5.15;;
54241;SDS011;40156;51.080;17.082;2023-03-19T14:54:24;8.57;;;4.97;;
54241;SDS011;40156;51.080;17.082;2023-03-19T14:56:54;8.52;;;5.18;;
54241;SDS011;40156;51.080;17.082;2023-03-19T14:59:22;15.70;;;9.95;;
54241;SDS011;40156;51.080;17.082;2023-03-19T15:01:52;8.50;;;5.32;;
54241;SDS011;40156;51.080;17.082;2023-03-19T15:04:21;15.85;;;8.98;;
54241;SDS011;40156;51.080;17.082;2023-03-19T15:06:50;16.05;;;8.00;;
54241;SDS011;40156;51.080;17.082;2023-03-19T15:09:25;11.93;;;6.70;;
54241;SDS011;40156;51.080;17.082;2023-03-19T15:19:43;17.63;;;7.43;;
54241;SDS011;40156;51.080;17.082;2023-03-19T15:22:16;15.23;;;8.57;;
54241;SDS011;40156;51.080;17.082;2023-03-19T15:24:46;15.75;;;8.13;;
54241;SDS011;40156;51.080;17.082;2023-03-19T15:27:17;13.27;;;7.00;;
54241;SDS011;40156;51.080;17.082;2023-03-19T15:29:49;11.57;;;6.88;;
54241;SDS011;40156;51.080;17.082;2023-03-19T15:35:17;12.93;;;6.53;;
54241;SDS011;40156;51.080;17.082;2023-03-19T15:37:47;9.93;;;6.03;;
54241;SDS011;40156;51.080;17.082;2023-03-19T15:40:17;13.82;;;7.10;;
54241;SDS011;40156;51.080;17.082;2023-03-19T15:42:46;12.90;;;7.35;;
54241;SDS011;40156;51.080;17.082;2023-03-19T15:45:15;13.82;;;7.88;;
54241;SDS011;40156;51.080;17.082;2023-03-19T15:47:48;13.35;;;7.22;;
54241;SDS011;40156;51.080;17.082;2023-03-19T15:50:19;14.98;;;7.95;;
54241;SDS011;40156;51.080;17.082;2023-03-19T15:52:50;11.27;;;6.82;;
54241;SDS011;40156;51.080;17.082;2023-03-19T15:55:19;17.98;;;8.85;;
54241;SDS011;40156;51.080;17.082;2023-03-19T15:57:46;14.85;;;7.75;;
54241;SDS011;40156;51.080;17.082;2023-03-19T16:00:14;15.02;;;8.13;;
54241;SDS011;40156;51.080;17.082;2023-03-19T16:02:42;13.30;;;7.50;;
54241;SDS011;40156;51.080;17.082;2023-03-19T16:07:57;13.25;;;8.07;;
54241;SDS011;40156;51.080;17.082;2023-03-19T16:12:55;16.85;;;8.43;;
54241;SDS011;40156;51.080;17.082;2023-03-19T16:15:24;13.57;;;7.90;;
54241;SDS011;40156;51.080;17.082;2023-03-19T16:17:54;12.00;;;7.85;;
54241;SDS011;40156;51.080;17.082;2023-03-19T16:20:22;15.93;;;8.30;;
54241;SDS011;40156;51.080;17.082;2023-03-19T16:22:53;13.27;;;8.05;;
54241;SDS011;40156;51.080;17.082;2023-03-19T16:25:21;16.23;;;8.23;;
54241;SDS011;40156;51.080;17.082;2023-03-19T16:27:53;16.10;;;8.48;;
54241;SDS011;40156;51.080;17.082;2023-03-19T16:30:22;26.10;;;8.45;;
54241;SDS011;40156;51.080;17.082;2023-03-19T16:32:56;18.35;;;7.88;;